Huvudsida
METAR-TAF:

METAR-TAF

Flygplatser :

Verona-Villafrancas flygplats

Verona, Italien

latitud: 45-23N, longitud: 010-52E, höjd: 67 m

Aktuellt väderrapport

Denna rapport gjordes för 29 minuter sedan, klockan 22:50 UTC
Vind 3 kt från nordväst, varierande mellan väst/nordväst och nord
Temperatur 12°C
Fuktighet 94%
Tryck 1023 hPa
Sikt: 3000 m
fuktdis

METAR: LIPX 132250Z 32003KT 290V360 3000 BR NSC 12/11 Q1023

Tid: 01:19 (23:19 UTC)

Väderprognos

Denna rapport gjordes för 3 timmar och 19 minuter sedan, klockan 20:00 UTC
Prognos gäller från 13 kl. 21 UTC till 14 kl. 06 UTC
Vind 5 kt varierande vindriktning
Sikt: 4000 m
Brutna moln på en höjd av 5000 ft
fuktdis
Temporärt
från 14 kl. 04 UTC till 14 kl. 06 UTC
Sikt: 1500 m
dimbankar

TAF: LIPX 132000Z 1321/1406 VRB05KT 4000 BR BKN050 TEMPO 1404/1406 1500 BCFG

Aktuella väderrapporter och prognoser från 4000 flygplatser (METAR- och TAF-rapporter).

De tillgängliga stationerna syns som gula och röda prickar på kartan.

För musen över prickarna för att se namnen på stationerna.

Klicka sedan för att få väderrapporter och prognoser.

För att ändra kartan: Klicka på de gröna knapparna med ett svart kors på för att zooma in; den gröna knappen med ett streck på för att zooma ut; eller på de gröna pilarna för angränsande kartor.


METAR-TAF: